createdAt,value
2018-01-22T00:00:25.742Z,4.00
2018-01-22T00:01:25.740Z,4.00
2018-01-22T00:02:25.736Z,4.00
2018-01-22T00:03:25.727Z,4.00
2018-01-22T00:04:25.730Z,4.00
2018-01-22T00:05:25.731Z,4.00
2018-01-22T00:06:25.729Z,4.00
2018-01-22T00:07:25.720Z,4.00
2018-01-22T00:08:25.722Z,4.00
2018-01-22T00:09:25.714Z,4.00
2018-01-22T00:10:25.711Z,4.00
2018-01-22T00:11:25.713Z,4.00
2018-01-22T00:12:25.708Z,4.00
2018-01-22T00:13:25.696Z,4.00
2018-01-22T00:14:25.698Z,4.00
2018-01-22T00:15:25.699Z,4.00
2018-01-22T00:16:25.696Z,4.00
2018-01-22T00:17:25.693Z,4.00
2018-01-22T00:18:25.686Z,4.00
2018-01-22T00:19:25.685Z,4.00
2018-01-22T00:20:25.683Z,4.00
2018-01-22T00:21:25.670Z,4.00
2018-01-22T00:22:25.677Z,4.00
2018-01-22T00:23:25.669Z,4.00
2018-01-22T00:24:25.665Z,4.00
2018-01-22T00:25:25.667Z,4.00
2018-01-22T00:26:25.664Z,4.00
2018-01-22T00:27:25.651Z,4.00
2018-01-22T00:28:25.647Z,4.00
2018-01-22T00:29:25.650Z,4.00
2018-01-22T00:30:25.653Z,4.00
2018-01-22T00:31:25.643Z,4.00
2018-01-22T00:32:25.640Z,4.00
2018-01-22T00:33:25.633Z,4.00
2018-01-22T00:34:25.634Z,4.00
2018-01-22T00:35:25.632Z,4.00
2018-01-22T00:36:25.622Z,4.00
2018-01-22T00:37:25.626Z,4.00
2018-01-22T00:38:25.622Z,4.00
2018-01-22T00:39:25.620Z,4.00
2018-01-22T00:40:25.615Z,4.00
2018-01-22T00:41:25.612Z,4.00
2018-01-22T00:42:25.609Z,4.00
2018-01-22T00:43:25.605Z,4.00
2018-01-22T00:44:25.606Z,4.00
2018-01-22T00:45:25.601Z,4.00
2018-01-22T00:46:25.600Z,4.00
2018-01-22T00:47:25.592Z,4.00
2018-01-22T00:48:25.574Z,4.00
2018-01-22T00:49:25.564Z,4.00
2018-01-22T00:50:25.562Z,4.00
2018-01-22T00:51:25.564Z,4.00
2018-01-22T00:52:25.561Z,4.00
2018-01-22T00:53:25.553Z,4.00
2018-01-22T00:54:25.551Z,4.00
2018-01-22T00:55:25.562Z,4.00
2018-01-22T00:56:25.568Z,4.00
2018-01-22T00:57:25.561Z,4.00
2018-01-22T00:58:25.546Z,4.00
2018-01-22T00:59:25.558Z,4.00
2018-01-22T01:00:25.547Z,4.00
2018-01-22T01:01:25.544Z,4.00
2018-01-22T01:02:25.524Z,4.00
2018-01-22T01:03:25.536Z,4.00
2018-01-22T01:04:25.523Z,4.00
2018-01-22T01:05:25.514Z,4.00
2018-01-22T01:06:25.521Z,4.00
2018-01-22T01:07:25.533Z,4.00
2018-01-22T01:08:25.611Z,4.00
2018-01-22T01:09:25.527Z,4.00
2018-01-22T01:10:25.514Z,4.00
2018-01-22T01:11:25.500Z,4.00
2018-01-22T01:12:25.512Z,4.00
2018-01-22T01:13:25.508Z,4.00
2018-01-22T01:14:25.505Z,4.00
2018-01-22T01:15:25.504Z,4.00
2018-01-22T01:16:25.492Z,4.00
2018-01-22T01:17:25.488Z,4.00
2018-01-22T01:18:25.494Z,4.00
2018-01-22T01:19:25.479Z,4.00
2018-01-22T01:20:25.480Z,4.00
2018-01-22T01:21:25.481Z,4.00
2018-01-22T01:22:25.468Z,4.00
2018-01-22T01:23:25.453Z,4.00
2018-01-22T01:24:25.470Z,4.00
2018-01-22T01:25:25.454Z,4.00
2018-01-22T01:26:25.435Z,4.00
2018-01-22T01:27:25.435Z,4.00
2018-01-22T01:28:25.445Z,4.00
2018-01-22T01:29:25.426Z,4.00
2018-01-22T01:30:25.441Z,4.00
2018-01-22T01:31:25.410Z,4.00
2018-01-22T01:32:25.426Z,4.00
2018-01-22T01:33:25.422Z,4.00
2018-01-22T01:34:25.418Z,4.00
2018-01-22T01:35:25.407Z,4.00
2018-01-22T01:36:25.402Z,4.00
2018-01-22T01:37:25.399Z,4.00
2018-01-22T01:38:25.393Z,4.00
2018-01-22T01:39:25.393Z,4.00
2018-01-22T01:40:25.388Z,4.00
2018-01-22T01:41:25.368Z,4.00
2018-01-22T01:42:25.374Z,4.00
2018-01-22T01:43:25.358Z,4.00
2018-01-22T01:44:25.352Z,4.00
2018-01-22T01:45:25.349Z,4.00
2018-01-22T01:46:25.345Z,4.00
2018-01-22T01:47:25.332Z,4.00
2018-01-22T01:48:25.334Z,4.00
2018-01-22T01:49:25.330Z,4.00
2018-01-22T01:50:25.425Z,4.00
2018-01-22T01:51:25.314Z,4.00
2018-01-22T01:52:25.311Z,4.00
2018-01-22T01:53:25.310Z,8.00
2018-01-22T01:54:25.300Z,4.00
2018-01-22T01:55:25.295Z,4.00
2018-01-22T01:56:25.295Z,4.00
2018-01-22T01:57:25.291Z,4.00
2018-01-22T01:58:25.286Z,4.00
2018-01-22T01:59:25.284Z,4.00
2018-01-22T02:00:25.269Z,4.00
2018-01-22T02:01:25.275Z,4.00
2018-01-22T02:02:25.262Z,4.00
2018-01-22T02:03:25.264Z,8.00
2018-01-22T02:04:25.263Z,4.00
2018-01-22T02:05:25.255Z,4.00
2018-01-22T02:06:25.247Z,4.00
2018-01-22T02:07:25.246Z,4.00
2018-01-22T02:08:25.242Z,4.00
2018-01-22T02:09:25.233Z,4.00
2018-01-22T02:10:25.222Z,4.00
2018-01-22T02:11:25.226Z,4.00
2018-01-22T02:12:25.218Z,4.00
2018-01-22T02:13:25.206Z,8.00
2018-01-22T02:14:25.202Z,4.00
2018-01-22T02:15:25.205Z,4.00
2018-01-22T02:16:25.201Z,4.00
2018-01-22T02:17:25.186Z,4.00
2018-01-22T02:18:25.182Z,4.00
2018-01-22T02:19:25.177Z,4.00
2018-01-22T02:20:25.181Z,4.00
2018-01-22T02:21:25.176Z,4.00
2018-01-22T02:22:25.171Z,4.00
2018-01-22T02:23:25.166Z,4.00
2018-01-22T02:24:25.152Z,4.00
2018-01-22T02:25:25.156Z,4.00
2018-01-22T02:26:25.148Z,4.00
2018-01-22T02:27:25.147Z,4.00
2018-01-22T02:28:25.142Z,4.00
2018-01-22T02:29:25.126Z,8.00
2018-01-22T02:30:25.131Z,8.00
2018-01-22T02:31:25.115Z,4.00
2018-01-22T02:32:25.220Z,4.00
2018-01-22T02:33:25.106Z,4.00
2018-01-22T02:34:25.112Z,4.00
2018-01-22T02:35:25.111Z,4.00
2018-01-22T02:36:25.090Z,4.00
2018-01-22T02:37:25.090Z,4.00
2018-01-22T02:38:25.089Z,8.00
2018-01-22T02:39:25.081Z,4.00
2018-01-22T02:40:25.069Z,8.00
2018-01-22T02:41:25.078Z,4.00
2018-01-22T02:42:25.060Z,4.00
2018-01-22T02:43:25.062Z,4.00
2018-01-22T02:44:25.149Z,4.00
2018-01-22T02:45:25.054Z,4.00
2018-01-22T02:46:25.045Z,4.00
2018-01-22T02:47:25.039Z,4.00
2018-01-22T02:48:25.035Z,4.00
2018-01-22T02:49:25.032Z,8.00
2018-01-22T02:50:25.029Z,4.00
2018-01-22T02:51:25.022Z,8.00
2018-01-22T02:52:25.014Z,8.00
2018-01-22T02:53:25.020Z,4.00
2018-01-22T02:54:24.997Z,8.00
2018-01-22T02:55:25.003Z,4.00
2018-01-22T02:56:24.986Z,4.00
2018-01-22T02:57:25.003Z,4.00
2018-01-22T02:58:25.010Z,4.00
2018-01-22T02:59:24.979Z,4.00
2018-01-22T03:00:24.991Z,8.00
2018-01-22T03:01:24.960Z,8.00
2018-01-22T03:02:24.977Z,8.00
2018-01-22T03:03:24.959Z,8.00
2018-01-22T03:04:24.960Z,8.00
2018-01-22T03:05:24.955Z,4.00
2018-01-22T03:06:24.951Z,8.00
2018-01-22T03:07:24.929Z,8.00
2018-01-22T03:08:24.929Z,8.00
2018-01-22T03:09:24.944Z,8.00
2018-01-22T03:10:24.929Z,8.00
2018-01-22T03:11:24.923Z,8.00
2018-01-22T03:12:24.911Z,8.00
2018-01-22T03:13:24.906Z,8.00
2018-01-22T03:14:24.898Z,8.00
2018-01-22T03:15:24.902Z,8.00
2018-01-22T03:16:24.892Z,8.00
2018-01-22T03:17:24.887Z,8.00
2018-01-22T03:18:24.878Z,4.00
2018-01-22T03:19:24.876Z,8.00
2018-01-22T03:20:24.986Z,8.00
2018-01-22T03:21:24.879Z,8.00
2018-01-22T03:22:24.872Z,8.00
2018-01-22T03:23:24.866Z,8.00
2018-01-22T03:24:24.861Z,8.00
2018-01-22T03:25:24.851Z,8.00
2018-01-22T03:26:24.836Z,8.00
2018-01-22T03:27:24.825Z,8.00
2018-01-22T03:28:24.825Z,8.00
2018-01-22T03:29:24.821Z,8.00
2018-01-22T03:30:24.810Z,8.00
2018-01-22T03:31:24.804Z,8.00
2018-01-22T03:32:24.805Z,8.00
2018-01-22T03:33:24.815Z,8.00
2018-01-22T03:34:24.810Z,8.00
2018-01-22T03:35:24.789Z,8.00
2018-01-22T03:36:24.800Z,8.00
2018-01-22T03:37:24.789Z,8.00
2018-01-22T03:38:24.774Z,8.00
2018-01-22T03:39:24.784Z,8.00
2018-01-22T03:40:24.779Z,8.00
2018-01-22T03:41:24.775Z,8.00
2018-01-22T03:42:24.765Z,8.00
2018-01-22T03:43:24.759Z,8.00
2018-01-22T03:44:24.861Z,8.00
2018-01-22T03:45:24.740Z,8.00
2018-01-22T03:46:24.744Z,8.00
2018-01-22T03:47:24.729Z,8.00
2018-01-22T03:48:24.739Z,8.00
2018-01-22T03:49:24.719Z,8.00
2018-01-22T03:50:24.708Z,8.00
2018-01-22T03:51:24.702Z,8.00
2018-01-22T03:52:24.704Z,8.00
2018-01-22T03:53:24.694Z,8.00
2018-01-22T03:54:24.710Z,8.00
2018-01-22T03:55:24.690Z,8.00
2018-01-22T03:56:24.779Z,8.00
2018-01-22T03:57:24.695Z,8.00
2018-01-22T03:58:24.685Z,8.00
2018-01-22T03:59:24.670Z,8.00
2018-01-22T04:00:24.665Z,8.00
2018-01-22T04:01:24.660Z,8.00
2018-01-22T04:02:24.676Z,8.00
2018-01-22T04:03:24.651Z,8.00
2018-01-22T04:04:24.644Z,8.00
2018-01-22T04:05:24.655Z,8.00
2018-01-22T04:06:24.646Z,8.00
2018-01-22T04:07:24.639Z,8.00
2018-01-22T04:08:24.623Z,8.00
2018-01-22T04:09:24.618Z,8.00
2018-01-22T04:10:24.625Z,8.00
2018-01-22T04:11:24.619Z,8.00
2018-01-22T04:12:24.615Z,8.00
2018-01-22T04:13:24.615Z,8.00
2018-01-22T04:14:24.610Z,8.00
2018-01-22T04:15:24.604Z,8.00
2018-01-22T04:16:24.583Z,8.00
2018-01-22T04:17:24.621Z,8.00
2018-01-22T04:18:24.584Z,8.00
2018-01-22T04:19:24.578Z,8.00
2018-01-22T04:20:24.562Z,8.00
2018-01-22T04:21:24.558Z,8.00
2018-01-22T04:22:24.554Z,8.00
2018-01-22T04:23:24.548Z,8.00
2018-01-22T04:24:24.543Z,8.00
2018-01-22T04:25:24.553Z,8.00
2018-01-22T04:26:24.648Z,8.00
2018-01-22T04:27:24.542Z,8.00
2018-01-22T04:28:24.522Z,8.00
2018-01-22T04:29:24.516Z,8.00
2018-01-22T04:30:24.522Z,8.00
2018-01-22T04:31:24.506Z,8.00
2018-01-22T04:32:24.601Z,8.00
2018-01-22T04:33:24.489Z,8.00
2018-01-22T04:34:24.491Z,8.00
2018-01-22T04:35:24.547Z,8.00
2018-01-22T04:36:24.480Z,8.00
2018-01-22T04:37:24.492Z,8.00
2018-01-22T04:38:24.487Z,8.00
2018-01-22T04:39:24.481Z,8.00
2018-01-22T04:40:24.476Z,8.00
2018-01-22T04:41:24.454Z,8.00
2018-01-22T04:42:24.449Z,8.00
2018-01-22T04:43:24.437Z,8.00
2018-01-22T04:44:24.456Z,8.00
2018-01-22T04:45:24.433Z,8.00
2018-01-22T04:46:24.441Z,8.00
2018-01-22T04:47:24.435Z,8.00
2018-01-22T04:48:24.435Z,8.00
2018-01-22T04:49:24.430Z,8.00
2018-01-22T04:50:24.420Z,8.00
2018-01-22T04:51:24.413Z,8.00
2018-01-22T04:52:24.409Z,8.00
2018-01-22T04:53:24.409Z,8.00
2018-01-22T04:54:24.407Z,8.00
2018-01-22T04:55:24.393Z,8.00
2018-01-22T04:56:24.487Z,8.00
2018-01-22T04:57:24.382Z,8.00
2018-01-22T04:58:24.377Z,8.00
2018-01-22T04:59:24.376Z,8.00
2018-01-22T05:00:24.371Z,8.00
2018-01-22T05:01:24.366Z,8.00
2018-01-22T05:02:24.361Z,8.00
2018-01-22T05:03:24.351Z,8.00
2018-01-22T05:04:24.402Z,8.00
2018-01-22T05:05:24.339Z,8.00
2018-01-22T05:06:24.334Z,8.00
2018-01-22T05:07:24.334Z,8.00
2018-01-22T05:08:24.329Z,8.00
2018-01-22T05:09:24.318Z,4.00
2018-01-22T05:10:24.318Z,8.00
2018-01-22T05:11:24.308Z,8.00
2018-01-22T05:12:24.309Z,8.00
2018-01-22T05:13:24.298Z,8.00
2018-01-22T05:14:24.298Z,8.00
2018-01-22T05:15:24.292Z,8.00
2018-01-22T05:16:24.287Z,8.00
2018-01-22T05:17:24.282Z,8.00
2018-01-22T05:18:24.272Z,8.00
2018-01-22T05:19:24.268Z,8.00
2018-01-22T05:20:24.362Z,8.00
2018-01-22T05:21:24.257Z,8.00
2018-01-22T05:22:24.257Z,8.00
2018-01-22T05:23:24.258Z,8.00
2018-01-22T05:24:24.245Z,8.00
2018-01-22T05:25:24.236Z,8.00
2018-01-22T05:26:24.237Z,8.00
2018-01-22T05:27:24.209Z,4.00
2018-01-22T05:28:24.221Z,8.00
2018-01-22T05:29:24.198Z,8.00
2018-01-22T05:30:24.211Z,8.00
2018-01-22T05:31:24.192Z,8.00
2018-01-22T05:32:24.201Z,8.00
2018-01-22T05:33:24.178Z,8.00
2018-01-22T05:34:24.192Z,8.00
2018-01-22T05:35:24.168Z,8.00
2018-01-22T05:36:24.181Z,8.00
2018-01-22T05:37:24.176Z,8.00
2018-01-22T05:38:24.153Z,8.00
2018-01-22T05:39:24.147Z,8.00
2018-01-22T05:40:24.155Z,8.00
2018-01-22T05:41:24.137Z,8.00
2018-01-22T05:42:24.139Z,8.00
2018-01-22T05:43:24.139Z,8.00
2018-01-22T05:44:24.122Z,8.00
2018-01-22T05:45:24.145Z,8.00
2018-01-22T05:46:24.123Z,8.00
2018-01-22T05:47:24.111Z,8.00
2018-01-22T05:48:24.120Z,8.00
2018-01-22T05:49:24.101Z,8.00
2018-01-22T05:50:24.116Z,8.00
2018-01-22T05:51:24.110Z,8.00
2018-01-22T05:52:24.100Z,8.00
2018-01-22T05:53:24.095Z,8.00
2018-01-22T05:54:24.072Z,8.00
2018-01-22T05:55:24.084Z,4.00
2018-01-22T05:56:24.085Z,8.00
2018-01-22T05:57:24.080Z,8.00
2018-01-22T05:58:24.052Z,8.00
2018-01-22T05:59:24.070Z,8.00
2018-01-22T06:00:24.047Z,8.00
2018-01-22T06:01:24.042Z,8.00
2018-01-22T06:02:24.056Z,8.00
2018-01-22T06:03:24.026Z,8.00
2018-01-22T06:04:24.042Z,8.00
2018-01-22T06:05:24.044Z,8.00
2018-01-22T06:06:24.030Z,8.00
2018-01-22T06:07:24.030Z,8.00
2018-01-22T06:08:24.008Z,8.00
2018-01-22T06:09:24.015Z,8.00
2018-01-22T06:10:24.016Z,8.00
2018-01-22T06:11:24.010Z,8.00
2018-01-22T06:12:23.981Z,8.00
2018-01-22T06:13:24.001Z,8.00
2018-01-22T06:14:24.091Z,8.00
2018-01-22T06:15:23.991Z,8.00
2018-01-22T06:16:23.961Z,8.00
2018-01-22T06:17:23.963Z,8.00
2018-01-22T06:18:23.957Z,8.00
2018-01-22T06:19:23.970Z,8.00
2018-01-22T06:20:24.042Z,8.00
2018-01-22T06:21:23.938Z,8.00
2018-01-22T06:22:23.933Z,8.00
2018-01-22T06:23:23.927Z,8.00
2018-01-22T06:24:23.940Z,8.00
2018-01-22T06:25:23.941Z,8.00
2018-01-22T06:26:23.931Z,8.00
2018-01-22T06:27:23.908Z,8.00
2018-01-22T06:28:23.926Z,8.00
2018-01-22T06:29:23.916Z,8.00
2018-01-22T06:30:23.916Z,8.00
2018-01-22T06:31:23.905Z,8.00
2018-01-22T06:32:24.001Z,8.00
2018-01-22T06:33:23.896Z,8.00
2018-01-22T06:34:23.891Z,8.00
2018-01-22T06:35:23.886Z,8.00
2018-01-22T06:36:23.881Z,8.00
2018-01-22T06:37:23.882Z,8.00
2018-01-22T06:38:23.876Z,4.00
2018-01-22T06:39:23.871Z,8.00
2018-01-22T06:40:23.859Z,8.00
2018-01-22T06:41:23.863Z,8.00
2018-01-22T06:42:23.856Z,4.00
2018-01-22T06:43:23.855Z,8.00
2018-01-22T06:44:23.943Z,8.00
2018-01-22T06:45:23.839Z,8.00
2018-01-22T06:46:23.840Z,8.00
2018-01-22T06:47:23.830Z,8.00
2018-01-22T06:48:23.818Z,8.00
2018-01-22T06:49:23.815Z,8.00
2018-01-22T06:50:23.813Z,8.00
2018-01-22T06:51:23.808Z,8.00
2018-01-22T06:52:23.806Z,8.00
2018-01-22T06:53:23.800Z,8.00
2018-01-22T06:54:23.787Z,8.00
2018-01-22T06:55:23.782Z,8.00
2018-01-22T06:56:23.792Z,8.00
2018-01-22T06:57:23.782Z,8.00
2018-01-22T06:58:23.750Z,8.00
2018-01-22T06:59:23.767Z,8.00
2018-01-22T07:00:23.766Z,8.00
2018-01-22T07:01:23.735Z,8.00
2018-01-22T07:02:23.747Z,8.00
2018-01-22T07:03:23.725Z,8.00
2018-01-22T07:04:23.745Z,8.00
2018-01-22T07:05:23.724Z,8.00
2018-01-22T07:06:23.720Z,8.00
2018-01-22T07:07:23.715Z,8.00
2018-01-22T07:08:23.725Z,8.00
2018-01-22T07:09:23.710Z,8.00
2018-01-22T07:10:23.689Z,8.00
2018-01-22T07:11:23.709Z,8.00
2018-01-22T07:12:23.695Z,8.00
2018-01-22T07:13:23.674Z,8.00
2018-01-22T07:14:23.686Z,4.00
2018-01-22T07:15:23.692Z,8.00
2018-01-22T07:16:23.659Z,8.00
2018-01-22T07:17:23.663Z,8.00
2018-01-22T07:18:23.666Z,8.00
2018-01-22T07:19:23.649Z,8.00
2018-01-22T07:20:23.765Z,8.00
2018-01-22T07:21:23.650Z,8.00
2018-01-22T07:22:23.638Z,8.00
2018-01-22T07:23:23.629Z,8.00
2018-01-22T07:24:23.644Z,8.00
2018-01-22T07:25:23.622Z,8.00
2018-01-22T07:26:23.625Z,8.00
2018-01-22T07:27:23.612Z,4.00
2018-01-22T07:28:23.654Z,8.00
2018-01-22T07:29:23.609Z,8.00
2018-01-22T07:30:23.605Z,8.00
2018-01-22T07:31:23.592Z,8.00
2018-01-22T07:32:23.600Z,8.00
2018-01-22T07:33:23.578Z,8.00
2018-01-22T07:34:23.590Z,8.00
2018-01-22T07:35:23.579Z,8.00
2018-01-22T07:36:23.574Z,8.00
2018-01-22T07:37:23.579Z,8.00
2018-01-22T07:38:23.549Z,8.00
2018-01-22T07:39:23.569Z,8.00
2018-01-22T07:40:23.560Z,8.00
2018-01-22T07:41:23.545Z,8.00
2018-01-22T07:42:23.554Z,8.00
2018-01-22T07:43:23.544Z,8.00
2018-01-22T07:44:23.623Z,8.00
2018-01-22T07:45:23.519Z,8.00
2018-01-22T07:46:23.508Z,8.00
2018-01-22T07:47:23.513Z,8.00
2018-01-22T07:48:23.510Z,8.00
2018-01-22T07:49:23.493Z,8.00
2018-01-22T07:50:23.505Z,8.00
2018-01-22T07:51:23.504Z,8.00
2018-01-22T07:52:23.504Z,8.00
2018-01-22T07:53:23.499Z,8.00
2018-01-22T07:54:23.494Z,8.00
2018-01-22T07:55:23.479Z,8.00
2018-01-22T07:56:23.467Z,4.00
2018-01-22T07:57:23.452Z,8.00
2018-01-22T07:58:23.464Z,4.00
2018-01-22T07:59:23.458Z,8.00
2018-01-22T08:00:23.444Z,4.00
2018-01-22T08:01:23.439Z,8.00
2018-01-22T08:02:23.444Z,8.00
2018-01-22T08:03:23.422Z,4.00
2018-01-22T08:04:23.438Z,4.00
2018-01-22T08:05:23.428Z,4.00
2018-01-22T08:06:23.423Z,4.00
2018-01-22T08:07:23.401Z,4.00
2018-01-22T08:08:23.513Z,4.00
2018-01-22T08:09:23.392Z,4.00
2018-01-22T08:10:23.387Z,4.00
2018-01-22T08:11:23.397Z,4.00
2018-01-22T08:12:23.393Z,4.00
2018-01-22T08:13:23.388Z,8.00
2018-01-22T08:14:23.383Z,4.00
2018-01-22T08:15:23.362Z,4.00
2018-01-22T08:16:23.362Z,4.00
2018-01-22T08:17:23.367Z,4.00
2018-01-22T08:18:23.345Z,4.00
2018-01-22T08:19:23.356Z,4.00
2018-01-22T08:20:23.341Z,4.00
2018-01-22T08:21:23.346Z,4.00
2018-01-22T08:22:23.342Z,4.00
2018-01-22T08:23:23.320Z,4.00
2018-01-22T08:24:23.332Z,8.00
2018-01-22T08:25:23.331Z,8.00
2018-01-22T08:26:23.427Z,8.00
2018-01-22T08:27:23.315Z,8.00
2018-01-22T08:28:23.296Z,8.00
2018-01-22T08:29:23.290Z,8.00
2018-01-22T08:30:23.286Z,8.00
2018-01-22T08:31:23.279Z,8.00
2018-01-22T08:32:23.290Z,12.00
2018-01-22T08:33:23.290Z,8.00
2018-01-22T08:34:23.289Z,8.00
2018-01-22T08:35:23.280Z,8.00
2018-01-22T08:36:23.270Z,12.00
2018-01-22T08:37:23.248Z,12.00
2018-01-22T08:38:23.244Z,12.00
2018-01-22T08:39:23.254Z,12.00
2018-01-22T08:40:23.249Z,12.00
2018-01-22T08:41:23.234Z,8.00
2018-01-22T08:42:23.240Z,8.00
2018-01-22T08:43:23.234Z,12.00
2018-01-22T08:44:23.212Z,12.00
2018-01-22T08:45:23.214Z,12.00
2018-01-22T08:46:23.209Z,16.00
2018-01-22T08:47:23.196Z,20.00
2018-01-22T08:48:23.196Z,20.00
2018-01-22T08:49:23.192Z,20.00
2018-01-22T08:50:23.182Z,24.00
2018-01-22T08:51:23.182Z,28.00
2018-01-22T08:52:23.171Z,28.00
2018-01-22T08:53:23.166Z,28.00
2018-01-22T08:54:23.161Z,32.00
2018-01-22T08:55:23.156Z,36.00
2018-01-22T08:56:23.151Z,36.00
2018-01-22T08:57:23.145Z,32.00
2018-01-22T08:58:23.147Z,32.00
2018-01-22T08:59:23.142Z,40.00
2018-01-22T09:00:23.130Z,40.00
2018-01-22T09:01:23.143Z,40.00
2018-01-22T09:02:23.120Z,36.00
2018-01-22T09:03:23.114Z,36.00
2018-01-22T09:04:23.109Z,40.00
2018-01-22T09:05:23.106Z,40.00
2018-01-22T09:06:23.100Z,44.00
2018-01-22T09:07:23.094Z,48.00
2018-01-22T09:08:23.090Z,48.00
2018-01-22T09:09:23.085Z,52.00
2018-01-22T09:10:23.080Z,56.00
2018-01-22T09:11:23.073Z,60.00
2018-01-22T09:12:23.069Z,64.00
2018-01-22T09:13:23.070Z,72.00
2018-01-22T09:14:23.076Z,76.00
2018-01-22T09:15:23.070Z,80.00
2018-01-22T09:16:23.065Z,88.00
2018-01-22T09:17:23.066Z,92.00
2018-01-22T09:18:23.055Z,100.00
2018-01-22T09:19:23.033Z,104.00
2018-01-22T09:20:23.144Z,112.00
2018-01-22T09:21:23.028Z,116.00
2018-01-22T09:22:23.018Z,120.00
2018-01-22T09:23:23.013Z,124.00
2018-01-22T09:24:23.008Z,128.00
2018-01-22T09:25:23.003Z,132.00
2018-01-22T09:26:23.014Z,136.00
2018-01-22T09:27:22.995Z,140.00
2018-01-22T09:28:23.004Z,148.00
2018-01-22T09:29:22.982Z,148.00
2018-01-22T09:30:22.980Z,144.00
2018-01-22T09:31:22.972Z,148.00
2018-01-22T09:32:23.068Z,152.00
2018-01-22T09:33:22.979Z,140.00
2018-01-22T09:34:22.960Z,136.00
2018-01-22T09:35:22.974Z,144.00
2018-01-22T09:36:22.964Z,176.00
2018-01-22T09:37:22.959Z,204.00
2018-01-22T09:38:22.940Z,224.00
2018-01-22T09:39:22.949Z,240.00
2018-01-22T09:40:22.945Z,260.00
2018-01-22T09:41:22.940Z,292.00
2018-01-22T09:42:22.936Z,320.00
2018-01-22T09:43:22.930Z,340.00
2018-01-22T09:44:22.909Z,344.00
2018-01-22T09:45:22.914Z,348.00
2018-01-22T09:46:22.926Z,336.00
2018-01-22T09:47:22.896Z,316.00
2018-01-22T09:48:22.890Z,304.00
2018-01-22T09:49:22.888Z,292.00
2018-01-22T09:50:22.982Z,288.00
2018-01-22T09:51:22.886Z,292.00
2018-01-22T09:52:22.872Z,300.00
2018-01-22T09:53:22.886Z,320.00
2018-01-22T09:54:22.873Z,304.00
2018-01-22T09:55:22.869Z,280.00
2018-01-22T09:56:22.858Z,276.00
2018-01-22T09:57:22.868Z,276.00
2018-01-22T09:58:22.863Z,280.00
2018-01-22T09:59:22.846Z,276.00
2018-01-22T10:00:22.854Z,272.00
2018-01-22T10:01:22.831Z,268.00
2018-01-22T10:02:22.846Z,264.00
2018-01-22T10:03:22.832Z,260.00
2018-01-22T10:04:22.817Z,260.00
2018-01-22T10:05:22.820Z,264.00
2018-01-22T10:06:22.820Z,268.00
2018-01-22T10:07:22.804Z,276.00
2018-01-22T10:08:22.919Z,276.00
2018-01-22T10:09:22.801Z,280.00
2018-01-22T10:10:22.820Z,288.00
2018-01-22T10:11:22.805Z,296.00
2018-01-22T10:12:22.789Z,304.00
2018-01-22T10:13:22.807Z,312.00
2018-01-22T10:14:22.785Z,316.00
2018-01-22T10:15:22.792Z,320.00
2018-01-22T10:16:22.790Z,320.00
2018-01-22T10:17:22.786Z,320.00
2018-01-22T10:18:22.776Z,324.00
2018-01-22T10:19:22.783Z,328.00
2018-01-22T10:20:22.749Z,336.00
2018-01-22T10:21:22.764Z,344.00
2018-01-22T10:22:22.742Z,348.00
2018-01-22T10:23:22.752Z,360.00
2018-01-22T10:24:22.749Z,356.00
2018-01-22T10:25:22.747Z,364.00
2018-01-22T10:26:22.743Z,368.00
2018-01-22T10:27:22.741Z,372.00
2018-01-22T10:28:22.741Z,368.00
2018-01-22T10:29:22.738Z,368.00
2018-01-22T10:30:22.740Z,364.00
2018-01-22T10:31:22.729Z,360.00
2018-01-22T10:32:22.725Z,352.00
2018-01-22T10:33:22.722Z,348.00
2018-01-22T10:34:22.708Z,348.00
2018-01-22T10:35:22.713Z,344.00
2018-01-22T10:36:22.709Z,352.00
2018-01-22T10:37:22.706Z,364.00
2018-01-22T10:38:22.697Z,372.00
2018-01-22T10:39:22.696Z,380.00
2018-01-22T10:40:22.693Z,384.00
2018-01-22T10:41:22.689Z,388.00
2018-01-22T10:42:22.685Z,392.00
2018-01-22T10:43:22.681Z,396.00
2018-01-22T10:44:22.677Z,404.00
2018-01-22T10:45:22.673Z,420.00
2018-01-22T10:46:22.660Z,480.00
2018-01-22T10:47:22.656Z,492.00
2018-01-22T10:48:22.652Z,496.00
2018-01-22T10:49:22.703Z,488.00
2018-01-22T10:50:22.654Z,440.00
2018-01-22T10:51:22.640Z,452.00
2018-01-22T10:52:22.636Z,420.00
2018-01-22T10:53:22.642Z,428.00
2018-01-22T10:54:22.629Z,396.00
2018-01-22T10:55:22.627Z,384.00
2018-01-22T10:56:22.630Z,448.00
2018-01-22T10:57:22.627Z,440.00
2018-01-22T10:58:22.615Z,440.00
2018-01-22T10:59:22.620Z,440.00
2018-01-22T11:00:22.616Z,436.00
2018-01-22T11:01:22.813Z,440.00
2018-01-22T11:02:22.610Z,444.00
2018-01-22T11:03:22.600Z,452.00
2018-01-22T11:04:22.601Z,460.00
2018-01-22T11:05:22.594Z,472.00
2018-01-22T11:06:22.594Z,484.00
2018-01-22T11:07:22.586Z,496.00
2018-01-22T11:08:22.577Z,492.00
2018-01-22T11:09:22.583Z,524.00
2018-01-22T11:10:22.570Z,548.00
2018-01-22T11:11:22.575Z,548.00
2018-01-22T11:12:22.567Z,600.00
2018-01-22T11:13:22.558Z,636.00
2018-01-22T11:14:22.561Z,628.00
2018-01-22T11:15:22.561Z,580.00
2018-01-22T11:16:22.558Z,612.00
2018-01-22T11:17:22.551Z,568.00
2018-01-22T11:18:22.547Z,512.00
2018-01-22T11:19:22.546Z,484.00
2018-01-22T11:20:22.534Z,456.00
2018-01-22T11:21:22.541Z,448.00
2018-01-22T11:22:22.537Z,452.00
2018-01-22T11:23:22.533Z,464.00
2018-01-22T11:24:22.526Z,436.00
2018-01-22T11:25:22.523Z,408.00
2018-01-22T11:26:22.524Z,428.00
2018-01-22T11:27:22.521Z,464.00
2018-01-22T11:28:22.514Z,408.00
2018-01-22T11:29:22.510Z,408.00
2018-01-22T11:30:22.511Z,376.00
2018-01-22T11:31:22.503Z,360.00
2018-01-22T11:32:22.503Z,404.00
2018-01-22T11:33:22.504Z,368.00
2018-01-22T11:34:22.500Z,364.00
2018-01-22T11:35:22.502Z,384.00
2018-01-22T11:36:22.494Z,460.00
2018-01-22T11:37:22.470Z,448.00
2018-01-22T11:38:22.470Z,472.00
2018-01-22T11:39:22.581Z,460.00
2018-01-22T11:40:22.464Z,532.00
2018-01-22T11:41:22.479Z,572.00
2018-01-22T11:42:22.476Z,612.00
2018-01-22T11:43:22.474Z,664.00
2018-01-22T11:44:22.447Z,720.00
2018-01-22T11:45:22.445Z,680.00
2018-01-22T11:46:22.460Z,668.00
2018-01-22T11:47:22.456Z,736.00
2018-01-22T11:48:22.435Z,776.00
2018-01-22T11:49:22.435Z,716.00
2018-01-22T11:50:22.447Z,712.00
2018-01-22T11:51:22.447Z,808.00
2018-01-22T11:52:22.422Z,852.00
2018-01-22T11:53:22.441Z,832.00
2018-01-22T11:54:22.438Z,756.00
2018-01-22T11:55:22.415Z,744.00
2018-01-22T11:56:22.431Z,784.00
2018-01-22T11:57:22.410Z,824.00
2018-01-22T11:58:22.425Z,856.00
2018-01-22T11:59:22.422Z,992.00
2018-01-22T12:00:22.400Z,804.00
2018-01-22T12:01:22.398Z,772.00
2018-01-22T12:02:22.417Z,812.00
2018-01-22T12:03:22.405Z,980.00
2018-01-22T12:04:22.407Z,916.00
2018-01-22T12:05:22.387Z,924.00
2018-01-22T12:06:22.379Z,1068.00
2018-01-22T12:07:22.386Z,952.00
2018-01-22T12:08:22.377Z,1056.00
2018-01-22T12:09:22.393Z,964.00
2018-01-22T12:10:22.388Z,940.00
2018-01-22T12:11:22.388Z,1092.00
2018-01-22T12:12:22.381Z,1112.00
2018-01-22T12:13:22.378Z,1132.00
2018-01-22T12:14:22.380Z,1160.00
2018-01-22T12:15:22.377Z,1136.00
2018-01-22T12:16:22.371Z,1240.00
2018-01-22T12:17:22.372Z,1284.00
2018-01-22T12:18:22.370Z,1324.00
2018-01-22T12:19:22.363Z,1252.00
2018-01-22T12:20:22.369Z,1324.00
2018-01-22T12:21:22.361Z,1140.00
2018-01-22T12:22:22.356Z,1448.00
2018-01-22T12:23:22.354Z,1256.00
2018-01-22T12:24:22.351Z,1312.00
2018-01-22T12:25:22.349Z,1588.00
2018-01-22T12:26:22.347Z,1472.00
2018-01-22T12:27:22.344Z,1328.00
2018-01-22T12:28:22.342Z,1340.00
2018-01-22T12:29:22.345Z,1240.00
2018-01-22T12:30:22.343Z,1344.00
2018-01-22T12:31:22.340Z,1552.00
2018-01-22T12:32:22.337Z,1608.00
2018-01-22T12:33:22.334Z,1676.00
2018-01-22T12:34:22.336Z,1624.00
2018-01-22T12:35:22.334Z,1580.00
2018-01-22T12:36:22.329Z,1516.00
2018-01-22T12:37:22.332Z,1588.00
2018-01-22T12:38:22.327Z,1444.00
2018-01-22T12:39:22.329Z,1288.00
2018-01-22T12:40:22.328Z,1168.00
2018-01-22T12:41:22.327Z,1140.00
2018-01-22T12:42:22.322Z,1104.00
2018-01-22T12:43:22.323Z,1188.00
2018-01-22T12:44:22.324Z,1212.00
2018-01-22T12:45:22.324Z,1224.00
2018-01-22T12:46:22.322Z,1240.00
2018-01-22T12:47:22.321Z,1228.00
2018-01-22T12:48:22.322Z,1192.00
2018-01-22T12:49:22.322Z,1068.00
2018-01-22T12:50:22.316Z,1000.00
2018-01-22T12:51:22.320Z,1008.00
2018-01-22T12:52:22.318Z,1036.00
2018-01-22T12:53:22.313Z,1400.00
2018-01-22T12:54:22.313Z,1392.00
2018-01-22T12:55:22.316Z,1320.00
2018-01-22T12:56:22.357Z,2740.00
2018-01-22T12:57:22.316Z,2684.00
2018-01-22T12:58:22.316Z,2432.00
2018-01-22T12:59:22.323Z,2192.00
2018-01-22T13:00:22.310Z,2464.00